Tiempo atmosférico en la estación meteorológica de Salamanca, Salamanca (775 m.)



Fecha
DESCASC
Temp. máxima en grados centígrados (hora)
DESCASC
Temp. mínima en grados centígrados (hora)
DESCASC
Temp. media en grados centígrados
DESCASC
Racha de viento máxima en m/sg (hora)
DESCASC
Velocidad máxima media en intervalos de 10 minutos(hora)
DESCASC
Precipitaciones diarias en mm
DESCASC
Precipitaciones de 00:00 a 06:00 en mm
DESCASC
Precipitaciones de 06:00 a 12:00 en mm
DESCASC
Precipitaciones de 12:00 a 18:00 en mm
DESCASC
Precipitaciones de 18:00 a 24:00 en mm
DESCASC
22-08-2019 32.1 (18:10) 15.4 (08:30) 23.7 8.89 (14:40) 3.06 (15:40) 0 0 0 0 0
21-08-2019 31.6 (18:40) 14.6 (08:50) 23.1 6.39 (18:50) 3.06 (19:00) 0 0 0 0 0
20-08-2019 28.6 (17:50) 13.7 (07:50) 21.2 8.89 (15:50) 4.17 (03:00) 0 0 0 0 0
19-08-2019 24.7 (15:20) 16.8 (07:50) 20.8 5.56 (21:40) 3.06 (22:50) 0 0 0 0 0
18-08-2019 29.6 (17:10) 16.3 (00:00) 22.9 9.17 (16:50) 3.89 (17:30) 0 0 0 0 0
17-08-2019 34.8 (18:20) 16.8 (00:00) 25.8 9.72 (17:00) 3.33 (16:30) 0 0 0 0 0
16-08-2019 33.9 (17:40) 17.3 (00:00) 25.6 7.78 (17:50) 3.33 (16:40) 0 0 0 0 0
15-08-2019 33.2 (18:20) 17.6 (00:00) 25.4 5.28 (13:40) 2.78 (13:40) 0 0 0 0 0
14-08-2019 32.4 (18:40) 12.3 (00:00) 22.4 7.22 (16:50) 2.78 (16:50) 0 0 0 0 0
13-08-2019 28.2 (18:00) 11.3 (00:00) 19.8 5.83 (11:20) 2.78 (00:10) 0 0 0 0 0
12-08-2019 24.8 (18:30) 11.5 (00:00) 18.1 7.5 (09:40) 3.06 (09:10) 0 0 0 0 0
11-08-2019 23.8 (17:40) 13.8 (00:00) 18.8 10 (16:40) 3.89 (15:30) 1.2 1.1 0.1 0 0
10-08-2019 28 (18:40) 13.4 (00:00) 20.7 6.39 (16:30) 3.61 (19:40) 0 0 0 0 0
09-08-2019 23.7 (00:00) 17.4 (00:00) 20.6 9.17 (13:50) 4.44 (09:40) 3.1 0 0.9 2.2 0
08-08-2019 31.4 (16:10) 19.5 (00:00) 25.4 12.22 (19:00) 5.28 (18:00) 0 0 0 0 0
07-08-2019 26.5 (13:50) 18.7 (00:00) 22.6 7.5 (18:20) 3.33 (21:30) 0 0 0 0 0
06-08-2019 33 (16:20) 17.8 (00:00) 25.4 9.17 (21:40) 4.44 (21:40) 0 0 0 0 0
05-08-2019 33.7 (17:50) 17.1 (00:00) 25.4 8.06 (18:00) 3.33 (17:00) 0 0 0 0 0
04-08-2019 33.9 (18:40) 18.1 (00:00) 26 10.83 (17:30) 3.89 (18:00) 0 0 0 0 0
03-08-2019 34.4 (17:20) 16.6 (00:00) 25.5 7.78 (18:00) 3.61 (14:40) 0 0 0 0 0
02-08-2019 33.6 (18:30) 15.2 (00:00) 24.4 5 (12:40) 2.78 (03:00) 0 0 0 0 0
01-08-2019 32.1 (17:20) 16 (00:00) 24 8.06 (19:40) 3.61 (18:10) 0 0 0 0 0
31-07-2019 30.3 (17:40) 12.3 (00:00) 21.3 7.22 (11:10) 3.33 (11:10) 0 0 0 0 0
30-07-2019 27.2 (18:30) 11.2 (00:00) 19.2 6.94 (15:30) 3.33 (00:50) 0 0 0 0 0
29-07-2019 26.5 (16:40) 14.5 (00:00) 20.5 9.44 (15:00) 4.44 (22:40) 0 0 0 0 0
28-07-2019 29.7 (18:50) 11.8 (00:00) 20.8 6.67 (19:40) 3.06 (00:20) 0 0 0 0 0
27-07-2019 25.9 (19:20) 13.9 (00:00) 19.9 9.17 (16:10) 4.44 (14:00) 0 0 0 0 0
26-07-2019 26.4 (17:00) 15 (00:00) 20.7 9.17 (18:40) 4.17 (18:40) 0 0 0 0 0

Gráficas

Temp. máximas Temp. mínimas Temp. medias Precipitaciones Rachas de viento máximas Velocidades máximas media en intervalos de 10 minutos

Datos horarios

Fecha y hora oficial Temperatura (ºC) Velocidad del viento (km/h) Dirección del viento Racha (km/h) Dirección de racha Precipitación (mm) Presión (hPa) Tendencia (hPa) Humedad (%)
2019-08-24 23:00:00 26.2 0 Calma 7 Sudoeste 0 927.9 0.7 45
2019-08-24 22:00:00 28 0 Calma 5 Este 0 927.6 0 41
2019-08-24 21:00:00 30.9 3 Este 12 Nordeste 0 927.3 -0.6 34
2019-08-24 20:00:00 32.6 4 Nordeste 9 Este 0 927.2 -1 31
2019-08-24 19:00:00 34 3 Sur 11 Este 0 927.6 -1 29
2019-08-24 18:00:00 34.3 0 Calma 16 Nordeste 0 927.9 -1.2 28
2019-08-24 17:00:00 32.9 6 Oeste 19 Norte 0 928.2 -1.4 29
2019-08-24 16:00:00 33.5 3 Norte 21 Noroeste 0 928.6 -1.5 30
2019-08-24 15:00:00 33.2 3 Noroeste 19 Noroeste 0 929.1 -1.3 32
2019-08-24 14:00:00 33 6 Sudoeste 21 Sudoeste 0 929.6 -0.9 32
2019-08-24 13:00:00 31.2 6 Sudoeste 16 Oeste 0 930.1 -0.4 36
2019-08-24 12:00:00 28.6 7 Oeste 14 Oeste 0 930.4 0.1 44
2019-08-24 11:00:00 25 2 Sudoeste 9 Sudoeste 0 930.5 0.6 53
2019-08-24 10:00:00 20.5 0 Calma 6 Este 0 930.5 0.7 65
2019-08-24 09:00:00 16.7 3 Este 7 Este 0 930.3 0.4 73
2019-08-24 08:00:00 15.8 4 Este 6 Este 0 929.9 -0.1 76
2019-08-24 07:00:00 16.1 2 Este 6 Este 0 929.8 0.1 72
2019-08-24 06:00:00 16.9 4 Este 7 Este 0 929.9 0.3 69
2019-08-24 05:00:00 17.6 0 Calma 4 Sudeste 0 930 0.1 71
2019-08-24 04:00:00 18.2 3 Este 5 Este 0 929.7 0.1 70
2019-08-24 03:00:00 19.2 0 Calma 4 Sur 0 929.6 0.2 61
2019-08-24 02:00:00 19.6 4 Sudeste 8 Sur 0 929.9 0.6 61
2019-08-24 01:00:00 21.3 0 Calma 6 Sudeste 0 929.6 0.8 59
2019-08-24 00:00:00 22.2 0 Calma 3 Sudeste 0 929.4 1 51
2019-08-23 23:00:00 24.2 2 Este 6 Este 0 929.3 0.9 46
2019-08-23 22:00:00 26.4 3 Este 8 Nordeste 0 928.8 0.1 41
2019-08-23 21:00:00 29.7 5 Nordeste 12 Nordeste 0 928.4 -0.6 32
2019-08-23 20:00:00 32.6 3 Noroeste 15 Noroeste 0 928.4 -1 27
2019-08-23 19:00:00 33.1 4 Noroeste 19 Nordeste 0 928.7 -1 27
2019-08-23 18:00:00 33.2 4 Noroeste 17 Norte 0 929 -1.3 27
2019-08-23 17:00:00 33.8 2 Sur 19 Oeste 0 929.4 -1.3 28
2019-08-23 16:00:00 32.7 9 Oeste 21 Oeste 0 929.7 -1.5 29
2019-08-23 15:00:00 32.2 8 Sudoeste 17 Sur 0 930.3 -1.4 30
2019-08-23 14:00:00 31.2 3 Este 13 Sur 0 930.7 -1.2 31
2019-08-23 13:00:00 29.6 2 Sudeste 10 Este 0 931.2 -0.6 34
2019-08-23 12:00:00 25.9 3 Este 12 Este 0 931.7 0.1 40
2019-08-23 11:00:00 22.7 6 Este 14 Este 0 931.9 0.5 44
2019-08-23 10:00:00 19.5 4 Este 11 Este 0 931.8 1 48
2019-08-23 09:00:00 16 0 Calma 4 Sudeste 0 931.6 1 57
2019-08-23 08:00:00 14.2 0 Calma 3 Norte 0 931.4 1.1 67
2019-08-23 07:00:00 14.4 3 Este 6 Este 0 930.8 0.5 62
2019-08-23 06:00:00 14.7 0 Calma 5 Este 0 930.6 0 61
2019-08-23 05:00:00 15.4 0 Calma 5 Sudeste 0 930.3 -0.7 64
2019-08-23 04:00:00 16.3 2 Este 3 Este 0 930.3 -0.7 65
2019-08-23 03:00:00 17.2 0 Calma 5 Este 0 930.6 -0.2 61
2019-08-23 02:00:00 18.3 0 Calma 5 Sudeste 0 931 0.3 59
2019-08-23 01:00:00 19.6 0 Calma 5 Este 0 931 0.7 50
2019-08-23 00:00:00 20.9 4 Este 7 Este 0 930.8 0.6 45
2019-08-22 23:00:00 22.7 4 Este 9 Norte 0 930.7 0.8 36
2019-08-22 22:00:00 26.1 4 Nordeste 13 Nordeste 0 930.3 0.1 29
2019-08-22 21:00:00 28.6 5 Nordeste 15 Nordeste 0 930.2 -0.3 27
2019-08-22 20:00:00 30.5 6 Nordeste 16 Este 0 929.9 -1 27
2019-08-22 19:00:00 31.7 6 Este 17 Este 0 930.2 -1.1 28
2019-08-22 18:00:00 31.6 6 Este 18 Este 0 930.5 -1.1 29
2019-08-22 17:00:00 31.3 7 Este 21 Sudeste 0 930.9 -1.3 32
2019-08-22 16:00:00 30.9 7 Este 27 Este 0 931.3 -1.5 33
2019-08-22 15:00:00 30.4 10 Este 32 Este 0 931.6 -1.5 37
2019-08-22 14:00:00 29.2 9 Este 24 Este 0 932.2 -1 43
2019-08-22 13:00:00 27 9 Este 21 Este 0 932.8 -0.4 52
2019-08-22 12:00:00 24.7 6 Este 17 Este 0 933.1 0 61
2019-08-22 11:00:00 21.8 6 Este 14 Este 0 933.2 0.9 68
2019-08-22 10:00:00 19 6 Este 19 Este 0 933.2 1.1 74
2019-08-22 09:00:00 16.3 6 Nordeste 16 Nordeste 0 933.1 1.3 81
2019-08-22 08:00:00 15.5 6 Nordeste 15 Nordeste 0 932.3 0.5 82
2019-08-22 07:00:00 16.6 5 Nordeste 16 Nordeste 0 932.1 0.6 75
2019-08-22 06:00:00 17.7 3 Nordeste 12 Norte 0 931.8 0.4 69
2019-08-22 05:00:00 18.1 3 Nordeste 13 Norte 0 931.8 0.2 65
2019-08-22 04:00:00 17.7 4 Este 8 Este 0 931.5 -0.1 73
2019-08-22 03:00:00 18.5 2 Este 6 Nordeste 0 931.4 0.2 69
2019-08-22 02:00:00 19.1 2 Este 15 Nordeste 0 931.6 0.7 67
2019-08-22 01:00:00 20.1 7 Este 15 Nordeste 0 931.6 1.4 66
2019-08-22 00:00:00 21.4 3 Este 11 Nordeste 0 931.2 1.5 62
2019-08-21 23:00:00 23 5 Nordeste 11 Nordeste 0 930.9 1.6 56
2019-08-21 22:00:00 24.1 4 Este 10 Este 0 930.2 0.8 57
2019-08-21 21:00:00 27.4 3 Este 9 Nordeste 0 929.7 0.3 41
2019-08-21 20:00:00 29.1 5 Este 16 Nordeste 0 929.3 -0.4 39
2019-08-21 19:00:00 30.1 11 Este 23 Este 0 929.4 -0.7 36
2019-08-21 18:00:00 30.6 4 Nordeste 20 Noroeste 0 929.4 -1.1 37
2019-08-21 17:00:00 29.9 3 Noroeste 19 Oeste 0 929.7 -1.2 38
2019-08-21 16:00:00 28.9 4 Noroeste 17 Oeste 0 930.1 -1.3 44
2019-08-21 15:00:00 27.7 5 Noroeste 21 Oeste 0 930.5 -1.2 47
2019-08-21 14:00:00 26.3 4 Oeste 14 Oeste 0 930.9 -0.7 50
2019-08-21 13:00:00 24.7 3 Este 13 Este 0 931.4 -0.1 56
2019-08-21 12:00:00 20.2 4 Norte 13 Noroeste 0 931.7 0.1 64
2019-08-21 11:00:00 19.4 3 Nordeste 14 Nordeste 0 931.6 0.3 67
2019-08-21 10:00:00 17.3 4 Nordeste 14 Nordeste 0 931.5 0.4 71
2019-08-21 09:00:00 15.3 3 Norte 11 Noroeste 0 931.6 0.9 76
2019-08-21 08:00:00 15 0 Calma 15 Nordeste 0 931.3 0.4 75
2019-08-21 07:00:00 15.5 5 Nordeste 13 Nordeste 0 931.1 0.2 73
2019-08-21 06:00:00 15.6 6 Este 15 Nordeste 0 930.7 -0.6 73
2019-08-21 05:00:00 16 5 Nordeste 14 Este 0 930.9 -0.6 71
2019-08-21 04:00:00 16.4 5 Nordeste 18 Nordeste 0 930.9 -0.7 69
2019-08-21 03:00:00 16.9 7 Nordeste 20 Nordeste 0 931.3 -0.4 65
2019-08-21 02:00:00 17.6 7 Nordeste 15 Este 0 931.5 0.1 61
2019-08-21 01:00:00 18.5 6 Nordeste 22 Nordeste 0 931.6 1.1 57
2019-08-21 00:00:00 19.6 8 Nordeste 19 Nordeste 0 931.7 1.5 53
2019-08-20 23:00:00 21.2 6 Nordeste 24 Nordeste 0 931.4 1.6 46
2019-08-20 22:00:00 23.5 6 Nordeste 23 Nordeste 0 930.5 0.6 40
2019-08-20 21:00:00 25 9 Nordeste 24 Nordeste 0 930.2 0.3 38
2019-08-20 20:00:00 27.1 9 Nordeste 23 Nordeste 0 929.8 -0.6 35
2019-08-20 19:00:00 27.7 8 Nordeste 23 Nordeste 0 929.9 -1 32
2019-08-20 18:00:00 27.5 11 Nordeste 24 Nordeste 0 929.9 -1.6 33
2019-08-20 17:00:00 27.7 9 Este 28 Norte 0 930.4 -1.4 36
2019-08-20 16:00:00 27.6 9 Este 32 Este 0 930.9 -1.1 40
2019-08-20 15:00:00 25.4 9 Nordeste 24 Nordeste 0 931.5 -0.9 45
2019-08-20 14:00:00 23.9 12 Nordeste 31 Este 0 931.8 -0.4 51
2019-08-20 13:00:00 22.5 11 Este 29 Este 0 932 0.3 58
2019-08-20 12:00:00 19.8 11 Nordeste 24 Nordeste 0 932.4 1 67
2019-08-20 11:00:00 16.8 14 Nordeste 24 Este 0 932.2 1.5 77
2019-08-20 10:00:00 15.8 9 Nordeste 25 Nordeste 0 931.7 1.8 81
2019-08-20 09:00:00 14.9 9 Nordeste 25 Nordeste 0 931.4 1.8 84
2019-08-20 08:00:00 13.8 6 Nordeste 21 Nordeste 0 930.7 1.5 85
2019-08-20 07:00:00 14.5 8 Nordeste 19 Nordeste 0 929.9 0.9 80
2019-08-20 06:00:00 15.3 8 Nordeste 20 Nordeste 0 929.6 0.6 76
2019-08-20 05:00:00 16.1 9 Nordeste 22 Nordeste 0 929.2 -0.2 72
2019-08-20 04:00:00 16.6 7 Nordeste 29 Nordeste 0 929 0.1 69
2019-08-20 03:00:00 17 15 Nordeste 27 Nordeste 0 929 0.8 68
2019-08-20 02:00:00 17.7 10 Nordeste 27 Nordeste 0 929.4 1.4 65
2019-08-20 01:00:00 19.8 8 Nordeste 19 Este 0 928.9 1 62
2019-08-20 00:00:00 20.4 9 Nordeste 18 Nordeste 0 928.2 0.9 60
2019-08-19 23:00:00 21.2 9 Nordeste 19 Nordeste 0 928 0.7 56
2019-08-19 22:00:00 22.2 8 Nordeste 20 Nordeste 0 927.9 0.5 53
2019-08-19 21:00:00 23.9 3 Norte 12 Noroeste 0 927.3 -0.3 46
2019-08-19 20:00:00 24.2 2 Norte 10 Norte 0 927.3 -0.4 47
2019-08-19 19:00:00 24.6 4 Sur 9 Noroeste 0 927.4 -0.6 45
2019-08-19 18:00:00 24.3 5 Sudoeste 12 Oeste 0 927.6 -0.7 47
2019-08-19 17:00:00 24 5 Noroeste 14 Noroeste 0 927.7 -0.6 51
2019-08-19 16:00:00 23.8 4 Noroeste 14 Nordeste 0 928 -0.6 51
2019-08-19 15:00:00 24.5 2 Norte 18 Norte 0 928.3 -0.2 53
2019-08-19 14:00:00 22.6 4 Norte 15 Norte 0 928.3 0.2 59
2019-08-19 13:00:00 21.9 4 Norte 17 Norte 0 928.6 0.7 63
2019-08-19 12:00:00 20.1 6 Nordeste 19 Nordeste 0 928.5 0.4 66
2019-08-19 11:00:00 19 7 Nordeste 19 Norte 0 928.1 0.1 71
2019-08-19 10:00:00 17.7 5 Nordeste 14 Nordeste 0 927.9 0.1 75
2019-08-19 09:00:00 17.1 5 Nordeste 16 Nordeste 0 928.1 0.3 77
2019-08-19 08:00:00 17 5 Nordeste 15 Nordeste 0 928 0.3 76
2019-08-19 07:00:00 17.6 5 Nordeste 13 Nordeste 0 927.8 -0.2 67
2019-08-19 06:00:00 17.8 5 Noroeste 11 Noroeste 0 927.8 -0.4 63
2019-08-19 05:00:00 18.3 4 Noroeste 13 Oeste 0 927.7 -0.7 61
2019-08-19 04:00:00 18.9 4 Oeste 15 Nordeste 0 928 -0.3 60
2019-08-19 03:00:00 19.7 3 Norte 16 Norte 0 928.2 0.4 57
2019-08-19 02:00:00 21.2 5 Noroeste 14 Noroeste 0 928.4 1.2 61
2019-08-19 01:00:00 21.6 8 Oeste 19 Oeste 0 928.3 -- 58
2019-08-19 00:00:00 22.5 6 Oeste 16 Oeste 0 927.8 1.9 56
2019-08-18 23:00:00 23.3 7 Oeste 19 Noroeste 0 927.2 1.7 56
2019-08-18 22:00:00 -- 11 Oeste 19 Oeste 0 -- -- --
2019-08-18 21:00:00 25.9 10 Oeste 24 Oeste 0 925.9 0.1 49
2019-08-18 20:00:00 27.7 10 Oeste 27 Oeste 0 925.5 -0.4 45
2019-08-18 19:00:00 27.6 12 Oeste 30 Oeste 0 925.7 -0.5 47
2019-08-18 18:00:00 28.5 12 Oeste 32 Sudoeste 0 925.8 -0.5 44
2019-08-18 17:00:00 29 13 Sudoeste 33 Sudoeste 0 925.9 -0.9 42
2019-08-18 16:00:00 28.5 12 Sudoeste 29 Sudoeste 0 926.2 -0.9 42
2019-08-18 15:00:00 27.1 12 Oeste 26 Sudoeste 0 926.3 -1.1 46
2019-08-18 14:00:00 25.7 11 Oeste 22 Sudoeste 0 926.8 -0.2 51
2019-08-18 13:00:00 22.9 7 Oeste 23 Sur 0 927.1 0.2 57
2019-08-18 12:00:00 22.4 8 Oeste 19 Noroeste 0 927.4 0.9 63
2019-08-18 11:00:00 19.9 5 Sur 14 Sudeste 0 927 0.8 73
2019-08-18 10:00:00 17.8 7 Sudoeste 15 Oeste 0 926.9 1 81
2019-08-18 09:00:00 17.4 6 Sudoeste 17 Oeste 0 926.5 0.8 86
2019-08-18 08:00:00 16.4 6 Sudoeste 15 Oeste 0 926.2 0.6 89
2019-08-18 07:00:00 17.2 9 Oeste 18 Oeste 0 925.9 -0.1 85
2019-08-18 06:00:00 18.5 6 Oeste 10 Oeste 0 925.7 -0.4 79
2019-08-18 05:00:00 19.2 2 Oeste 9 Sudoeste 0 925.6 -0.6 68
2019-08-18 04:00:00 20.2 3 Oeste 16 Sudoeste 0 926 -0.1 63
2019-08-18 03:00:00 21.4 5 Oeste 17 Sudoeste 0 926.1 0 59
2019-08-18 02:00:00 22.7 6 Oeste 13 Oeste 0 926.2 0.4 50
2019-08-18 01:00:00 23.4 5 Oeste 10 Oeste 0 926.1 0.8 45
2019-08-18 00:00:00 24.2 5 Sudoeste 11 Oeste 0 926.1 1.2 42
2019-08-17 23:00:00 25.4 0 Calma 4 Sudoeste 0 925.8 1.1 42
2019-08-17 22:00:00 27.7 3 Sudoeste 14 Oeste 0 925.3 0.3 36
2019-08-17 21:00:00 30.9 9 Oeste 19 Oeste 0 924.9 -0.5 30
2019-08-17 20:00:00 33.1 10 Oeste 24 Oeste 0 924.7 -1.1 28
2019-08-17 19:00:00 34 10 Oeste 30 Sudoeste 0 925 -1.2 28
2019-08-17 18:00:00 34.2 10 Oeste 28 Sudoeste 0 925.4 -1.4 28
2019-08-17 17:00:00 34.1 10 Sudoeste 35 Sudoeste 0 925.8 -1.8 29
2019-08-17 16:00:00 33.8 6 Oeste 22 Noroeste 0 926.2 -2.1 30
2019-08-17 15:00:00 32.4 9 Oeste 25 Noroeste 0 926.8 -2.1 32
2019-08-17 14:00:00 30.9 5 Sudoeste 15 Oeste 0 927.6 -1.4 38
2019-08-17 13:00:00 28.6 3 Oeste 13 Oeste 0 928.3 -0.8 45
2019-08-17 12:00:00 27 4 Sudoeste 14 Sudoeste 0 928.9 -0.1 51
2019-08-17 11:00:00 24.2 6 Oeste 12 Oeste 0 929 0.2 57
2019-08-17 10:00:00 21.6 4 Sudoeste 9 Sudoeste 0 929.1 0.4 64
2019-08-17 09:00:00 18.4 6 Oeste 10 Sudoeste 0 929 0.3 69
2019-08-17 08:00:00 16.9 0 Calma 4 Oeste 0 928.8 -0.4 72
2019-08-17 07:00:00 17.4 0 Calma 3 Sudeste 0 928.7 -0.4 68
2019-08-17 06:00:00 18.1 0 Calma 8 Sudoeste 0 928.7 -0.9 62
2019-08-17 05:00:00 19.2 5 Sudoeste 11 Sudoeste 0 929.2 -0.4 57
2019-08-17 04:00:00 20.1 2 Sur 8 Sudoeste 0 929.1 -0.1 57
2019-08-17 03:00:00 21.1 3 Sudoeste 9 Sur 0 929.6 0.7 53
2019-08-17 02:00:00 22.3 4 Sudoeste 11 Oeste 0 929.6 0.9 49
2019-08-17 01:00:00 23.5 6 Oeste 15 Oeste 0 929.2 1.2 45
2019-08-17 00:00:00 24.6 5 Oeste 11 Sudoeste 0 928.9 1.2 42
2019-08-16 23:00:00 26.2 8 Oeste 15 Oeste 0 928.7 1.5 36
2019-08-16 22:00:00 28.6 8 Oeste 21 Oeste 0 928 0.4 31
2019-08-16 21:00:00 30.4 8 Oeste 22 Sudoeste 0 927.7 0 29
2019-08-16 20:00:00 32.3 11 Oeste 24 Sudoeste 0 927.2 -0.9 26
2019-08-16 19:00:00 33.6 9 Oeste 23 Oeste 0 927.6 -0.8 27
2019-08-16 18:00:00 33.2 12 Oeste 28 Oeste 0 927.7 -1 30
2019-08-16 17:00:00 33.4 12 Oeste 26 Sudoeste 0 928.1 -1.3 31
2019-08-16 16:00:00 32.8 11 Oeste 23 Sudoeste 0 928.4 -1.6 34
2019-08-16 15:00:00 31.9 10 Sudoeste 26 Sudoeste 0 928.7 -1.8 37
2019-08-16 14:00:00 30.5 9 Oeste 21 Oeste 0 929.4 -1.3 42
2019-08-16 13:00:00 27.7 2 Oeste 14 Noroeste 0 930 -0.7 49
2019-08-16 12:00:00 25.2 5 Noroeste 13 Noroeste 0 930.5 0.1 52
2019-08-16 11:00:00 23.5 5 Oeste 12 Oeste 0 930.7 0.4 57
2019-08-16 10:00:00 21.2 4 Oeste 10 Oeste 0 930.7 0.7 63
2019-08-16 09:00:00 18.7 3 Sudoeste 8 Sudoeste 0 930.4 0.5 72
2019-08-16 08:00:00 17.4 4 Sudoeste 12 Sudoeste 0 930.3 0.2 73
2019-08-16 07:00:00 18.2 4 Sudoeste 8 Sudoeste 0 930 -0.2 72
2019-08-16 06:00:00 19.3 4 Oeste 9 Oeste 0 929.9 -0.4 67
2019-08-16 05:00:00 20 6 Oeste 11 Oeste 0 930.1 -0.4 65
2019-08-16 04:00:00 20.9 4 Oeste 8 Oeste 0 930.2 -0.4 61
2019-08-16 03:00:00 21.8 3 Sudeste 13 Nordeste 0 930.3 -0.3 60
2019-08-16 02:00:00 22.7 6 Oeste 9 Sudoeste 0 930.5 0.4 53
2019-08-16 01:00:00 23.7 5 Sudoeste 9 Sudoeste 0 930.6 0.9 48
2019-08-16 00:00:00 25.5 0 Calma 10 Noroeste 0 930.6 1.5 44
2019-08-15 23:00:00 26.4 3 Oeste 10 Noroeste 0 930.1 1 41
2019-08-15 22:00:00 28.1 2 Sudeste 12 Oeste 0 929.7 0.3 36
2019-08-15 21:00:00 30.4 3 Oeste 12 Noroeste 0 929.1 -0.4 32
2019-08-15 20:00:00 32.1 4 Oeste 13 Oeste 0 929.1 -0.9 31
2019-08-15 19:00:00 33.2 5 Sudeste 15 Sudoeste 0 929.4 -1.3 32
2019-08-15 18:00:00 32.8 6 Sudoeste 15 Sudoeste 0 929.5 -1.7 32
2019-08-15 17:00:00 32.7 5 Sudeste 15 Sudeste 0 930 -1.8 33
2019-08-15 16:00:00 31.4 4 Este 16 Sudeste 0 930.7 -1.6 35
2019-08-15 15:00:00 30.8 6 Este 15 Nordeste 0 931.2 -1.4 36
2019-08-15 14:00:00 28.6 5 Nordeste 19 Nordeste 0 931.8 -0.5 39
2019-08-15 13:00:00 27.1 2 Nordeste 15 Este 0 932.3 -0.3 44
2019-08-15 12:00:00 25.6 6 Este 17 Este 0 932.6 -0.1 53
2019-08-15 11:00:00 23.7 7 Este 14 Este 0 932.3 -0.1 61
2019-08-15 10:00:00 21 6 Este 14 Nordeste 0 932.6 0.4 68
2019-08-15 09:00:00 18.3 2 Norte 10 Noroeste 0 932.7 0.9 76
2019-08-15 08:00:00 17.7 3 Oeste 6 Oeste 0 932.4 0.7 82
2019-08-15 07:00:00 18.4 3 Sudoeste 7 Sudoeste 0 932.2 0.2 79
2019-08-15 06:00:00 19 3 Oeste 9 Oeste 0 931.8 0.2 77
2019-08-15 05:00:00 19.7 4 Oeste 7 Oeste 0 931.7 0 75
2019-08-15 04:00:00 20.5 3 Oeste 6 Este 0 932 0.4 73
2019-08-15 03:00:00 21.7 0 Calma 6 Oeste 0 931.6 0.1 68
2019-08-15 02:00:00 22.3 3 Sudoeste 9 Sudoeste 0 931.7 0.6 65
2019-08-15 01:00:00 23.2 5 Sudoeste 14 Oeste 0 931.6 1.1 60
2019-08-15 00:00:00 24.9 7 Oeste 15 Oeste 0 931.5 1.4 53
2019-08-14 23:00:00 26 9 Oeste 17 Oeste 0 931.1 1.2 47
2019-08-14 22:00:00 27.5 6 Oeste 12 Noroeste 0 930.5 0.6 41
2019-08-14 21:00:00 29.1 7 Oeste 18 Oeste 0 930.1 -0.1 37
2019-08-14 20:00:00 30.6 5 Oeste 18 Noroeste 0 929.9 -0.6 33
2019-08-14 19:00:00 30.9 8 Noroeste 21 Noroeste 0 929.9 -1.1 32
2019-08-14 18:00:00 31.7 5 Noroeste 20 Noroeste 0 930.2 -1.2 31
2019-08-14 17:00:00 31.4 7 Oeste 26 Oeste 0 930.5 -1.2 31
2019-08-14 16:00:00 30.7 4 Noroeste 19 Oeste 0 931 -1.1 31
2019-08-14 15:00:00 29.4 4 Noroeste 21 Sudoeste 0 931.4 -1.4 31
2019-08-14 14:00:00 28.8 7 Oeste 17 Oeste 0 931.7 -1.1 32
2019-08-14 13:00:00 26.1 3 Norte 13 Oeste 0 932.1 -0.6 36
2019-08-14 12:00:00 25.4 3 Oeste 12 Sudoeste 0 932.8 0.2 38
2019-08-14 11:00:00 22.7 3 Sur 9 Oeste 0 932.8 0.8 43
2019-08-14 10:00:00 18.5 2 Oeste 9 Oeste 0 932.7 0.8 49
2019-08-14 09:00:00 14.7 2 Sudoeste 6 Sur 0 932.6 1 61
2019-08-14 08:00:00 12.7 0 Calma 3 Este 0 932 0.5 73
2019-08-14 07:00:00 12.9 0 Calma 5 Este 0 931.9 -0.1 78
2019-08-14 06:00:00 13.5 0 Calma 4 Este 0 931.6 -0.4 76
2019-08-14 05:00:00 14.2 0 Calma 4 Este 0 931.5 -0.6 68
2019-08-14 04:00:00 14.8 2 Este 5 Este 0 932 0.1 63
2019-08-14 03:00:00 15.8 0 Calma 4 Sudoeste 0 932 0.9 66
2019-08-14 02:00:00 16.6 0 Calma 5 Oeste 0 932.1 0.5 51
2019-08-14 01:00:00 17.8 0 Calma 4 Este 0 931.9 0.8 60
2019-08-14 00:00:00 19.1 0 Calma 6 Nordeste 0 931.1 0.3 44
2019-08-13 23:00:00 21.1 4 Este 12 Nordeste 0 931.6 1.2 35
2019-08-13 22:00:00 22.9 5 Este 9 Nordeste 0 931.1 0.5 33
2019-08-13 21:00:00 25.5 3 Sudeste 11 Nordeste 0 930.8 0.1 29
2019-08-13 20:00:00 26.7 0 Calma 14 Oeste 0 930.4 -0.6 28
2019-08-13 19:00:00 27.9 4 Oeste 17 Sudoeste 0 930.6 -1 27
2019-08-13 18:00:00 28.1 2 Este 15 Oeste 0 930.7 -1.4 28
2019-08-13 17:00:00 27.8 5 Sudeste 17 Nordeste 0 931 -1.5 29
2019-08-13 16:00:00 26.7 4 Sur 17 Este 0 931.6 -1.3 32
2019-08-13 15:00:00 24.4 7 Nordeste 18 Este 0 932.1 -1.3 33
2019-08-13 14:00:00 24.4 4 Este 21 Este 0 932.5 -1 37
2019-08-13 13:00:00 22.5 10 Este 20 Nordeste 0 932.9 -0.4 41
2019-08-13 12:00:00 20.1 9 Nordeste 21 Este 0 933.4 0.1 47
2019-08-13 11:00:00 18.6 5 Nordeste 21 Este 0 933.5 0.7 57
2019-08-13 10:00:00 15.7 5 Nordeste 21 Nordeste 0 933.3 0.8 65
2019-08-13 09:00:00 12.9 6 Nordeste 18 Nordeste 0 933.3 0.8 73
2019-08-13 08:00:00 11.5 6 Nordeste 19 Este 0 932.8 0.3 77
2019-08-13 07:00:00 11.7 6 Nordeste 18 Nordeste 0 932.5 0 75
2019-08-13 06:00:00 12.2 5 Este 20 Nordeste 0 932.5 -0.2 73
2019-08-13 05:00:00 13.2 8 Nordeste 20 Nordeste 0 932.5 -0.4 70
2019-08-13 04:00:00 14.1 6 Este 20 Nordeste 0 932.5 -0.3 66
2019-08-13 03:00:00 15.1 5 Este 17 Este 0 932.7 0.1 61
2019-08-13 02:00:00 16.3 5 Nordeste 17 Nordeste 0 932.9 0.8 49
2019-08-13 01:00:00 17.8 5 Este 21 Nordeste 0 932.8 1.3 40
2019-08-13 00:00:00 19.4 10 Nordeste 20 Nordeste 0 932.6 1.5 35
2019-08-12 23:00:00 20.8 3 Nordeste 15 Nordeste 0 932.1 0.9 33
2019-08-12 22:00:00 21.7 4 Nordeste 14 Nordeste 0 931.5 0.3 32
2019-08-12 21:00:00 22.1 4 Nordeste 18 Nordeste 0 931.1 -0.2 31
2019-08-12 20:00:00 22.9 6 Nordeste 22 Nordeste 0 931.2 -0.2 29
2019-08-12 19:00:00 24.1 5 Nordeste 24 Nordeste 0 931.2 -0.9 29
2019-08-12 18:00:00 23.8 5 Nordeste 24 Nordeste 0 931.3 -1.4 30
2019-08-12 17:00:00 23.4 4 Nordeste 23 Nordeste 0 931.4 -1.7 31
2019-08-12 16:00:00 22.4 5 Nordeste 21 Nordeste 0 932.1 -1.5 34
2019-08-12 15:00:00 22.4 6 Nordeste 22 Nordeste 0 932.7 -1.2 39
2019-08-12 14:00:00 20.6 9 Nordeste 25 Nordeste 0 933.1 -0.9 41
2019-08-12 13:00:00 18.9 8 Nordeste 25 Nordeste 0 933.6 -0.4 48
2019-08-12 12:00:00 17.5 9 Nordeste 26 Este 0 933.9 0.9 52
2019-08-12 11:00:00 16.5 7 Nordeste 22 Este 0 934 1.3 57
2019-08-12 10:00:00 14.6 9 Nordeste 27 Este 0 934 2 64
2019-08-12 09:00:00 12.5 8 Nordeste 20 Nordeste 0 933 1.2 71
2019-08-12 08:00:00 11.9 0 Calma 14 Nordeste 0 932.7 0.9 72
2019-08-12 07:00:00 11.7 4 Noroeste 12 Noroeste 0 932 0 72
2019-08-12 06:00:00 11.7 3 Oeste 11 Noroeste 0 931.8 -0.4 74
2019-08-12 05:00:00 12.2 3 Oeste 10 Oeste 0 931.8 -0.5 73
2019-08-12 04:00:00 13 3 Oeste 9 Sudoeste 0 932 0 66
2019-08-12 03:00:00 14.3 2 Oeste 12 Norte 0 932.2 0.4 58
2019-08-12 02:00:00 15 2 Noroeste 16 Oeste 0 932.3 1.1 56
2019-08-12 01:00:00 15.5 9 Oeste 17 Sudoeste 0 932 1.5 53
2019-08-12 00:00:00 16.9 5 Oeste 21 Oeste 0 931.8 2 49
2019-08-11 23:00:00 17.9 6 Noroeste 18 Oeste 0 931.2 1.9 44
2019-08-11 22:00:00 19.4 8 Oeste 20 Oeste 0 930.5 1.2 37
2019-08-11 21:00:00 20.6 11 Oeste 26 Sudoeste 0 929.8 0.7 35
2019-08-11 20:00:00 21.9 11 Oeste 27 Oeste 0 929.3 -0.1 33
2019-08-11 19:00:00 23.3 11 Oeste 32 Oeste 0 929.3 -0.2 32
2019-08-11 18:00:00 23 14 Oeste 27 Oeste 0 929.1 -0.8 32
2019-08-11 17:00:00 23.1 10 Oeste 36 Sudoeste 0 929.4 -0.8 35
2019-08-11 16:00:00 22.6 12 Oeste 28 Oeste 0 929.5 -1 38
2019-08-11 15:00:00 21.7 12 Sudoeste 31 Oeste 0 929.9 -0.4 43
2019-08-11 14:00:00 20.4 10 Sudoeste 24 Sudoeste 0 930.2 -0.1 50
2019-08-11 13:00:00 19 9 Oeste 25 Sudoeste 0 930.5 0.5 58
2019-08-11 12:00:00 17.8 10 Oeste 24 Sudoeste 0 930.3 0.8 69
2019-08-11 11:00:00 16.9 10 Oeste 22 Oeste 0.1 930.3 1.2 78
2019-08-11 10:00:00 16.1 10 Oeste 21 Oeste 0 930 1.5 85
2019-08-11 09:00:00 14.8 10 Oeste 18 Sudoeste 0 929.5 1.3 90
2019-08-11 08:00:00 13.9 9 Oeste 14 Oeste 0 929.1 0.4 93
2019-08-11 07:00:00 14.3 0 Calma 5 Este 0 928.5 -1.3 92
2019-08-11 06:00:00 14.8 0 Calma 12 Nordeste 0 928.2 -1.7 89
2019-08-11 05:00:00 15.5 5 Nordeste 18 Noroeste 1 928.7 -1 85
2019-08-11 04:00:00 17.3 13 Oeste 29 Oeste 0 929.8 0.6 70
2019-08-11 03:00:00 18.2 9 Oeste 17 Oeste 0.1 929.9 0.7 65
2019-08-11 02:00:00 19.9 11 Oeste 20 Oeste 0 929.7 0.5 49
2019-08-11 01:00:00 20.6 5 Oeste 16 Oeste 0 929.2 0.2 45
2019-08-11 00:00:00 21 6 Oeste 14 Oeste 0 929.2 0.4 44
2019-08-10 23:00:00 21.9 2 Sudoeste 14 Norte 0 929.2 0.7 40
2019-08-10 22:00:00 22.9 4 Noroeste 18 Noroeste 0 929 0.3 37
2019-08-10 21:00:00 24.4 7 Oeste 22 Oeste 0 928.8 -0.1 35
2019-08-10 20:00:00 25.8 9 Oeste 23 Oeste 0 928.5 -1 34
2019-08-10 19:00:00 27.6 10 Oeste 22 Oeste 0 928.7 -1.6 33
2019-08-10 18:00:00 27.5 9 Sudoeste 22 Sudoeste 0 928.9 -1.9 35
2019-08-10 17:00:00 26.7 7 Sudoeste 23 Noroeste 0 929.5 -2 36
2019-08-10 16:00:00 25.9 3 Sudoeste 17 Sudoeste 0 930.3 -1.5 40
2019-08-10 15:00:00 25 4 Sudeste 15 Sudeste 0 930.8 -1.1 42
2019-08-10 14:00:00 23.2 4 Sur 15 Sur 0 931.5 -0.8 47
2019-08-10 13:00:00 21.6 3 Nordeste 13 Este 0 931.8 -0.6 53
2019-08-10 12:00:00 20.7 5 Este 13 Sur 0 931.9 -0.2 57
2019-08-10 11:00:00 19.6 0 Calma 9 Sur 0 932.3 0.3 65
2019-08-10 10:00:00 17.3 0 Calma 7 Oeste 0 932.4 1.1 75
2019-08-10 09:00:00 14.7 3 Sudoeste 6 Oeste 0 932.1 1 88
2019-08-10 08:00:00 13.8 3 Sudoeste 4 Sudoeste 0 932 0.8 88
2019-08-10 07:00:00 13.7 0 Calma 6 Este 0 931.3 0.2 87
2019-08-10 06:00:00 13.7 4 Este 5 Este 0 931.1 0.1 88
2019-08-10 05:00:00 13.5 2 Este 5 Sudoeste 0 931.2 0.4 87
2019-08-10 04:00:00 14.4 3 Sudoeste 8 Oeste 0 931.1 0.2 81
2019-08-10 03:00:00 15.1 4 Oeste 9 Oeste 0 931 0.5 78
2019-08-10 02:00:00 15.7 5 Oeste 9 Sudoeste 0 930.8 0.6 78
2019-08-10 01:00:00 16.4 3 Oeste 15 Oeste 0 930.9 1.4 75
2019-08-10 00:00:00 17.8 7 Oeste 13 Oeste 0 930.5 1.8 69
2019-08-09 23:00:00 18.4 2 Sudoeste 13 Sur 0 930.2 1.7 75
2019-08-09 22:00:00 19.2 5 Sur 16 Sudoeste 0 929.5 0.8 73
2019-08-09 21:00:00 20.3 6 Sur 18 Sur 0 928.7 -0.5 69
2019-08-09 20:00:00 20.7 7 Sur 28 Sudoeste 0 928.5 -0.2 74
2019-08-09 19:00:00 19.5 10 Sur 29 Sur 0 928.7 0.5 79
2019-08-09 18:00:00 17.6 12 Sur 29 Sur 1.2 929.2 0.9 91
2019-08-09 17:00:00 19.1 12 Sur 31 Sur 0.6 928.7 0.4 81
2019-08-09 16:00:00 22 12 Sudoeste 31 Oeste 0 928.2 -0.1 70
2019-08-09 15:00:00 23 13 Oeste 30 Oeste 0 928.3 0.1 69
2019-08-09 14:00:00 21.9 13 Sudoeste 33 Sudoeste 0 928.3 0.9 78
2019-08-09 13:00:00 19.2 5 Sudoeste 22 Oeste 0.4 928.3 1.5 93
2019-08-09 12:00:00 17.8 9 Oeste 27 Oeste 0.9 928.2 2.3 97
2019-08-09 11:00:00 18.5 13 Oeste 24 Oeste 0 927.4 1.6 94
2019-08-09 10:00:00 20 10 Oeste 32 Sudoeste 0 926.8 1.8 94
2019-08-09 09:00:00 21 13 Sur 32 Sur 0 925.9 0.9 86
2019-08-09 08:00:00 20.2 12 Sur 24 Sur 0 925.8 0.5 88
2019-08-09 07:00:00 19.8 11 Sur 23 Sur 0 925 -0.3 89
2019-08-09 06:00:00 19.9 10 Sur 26 Sur 0 925 -0.4 85
2019-08-09 05:00:00 20.6 11 Sur 26 Sudoeste 0 925.3 -0.4 79
2019-08-09 04:00:00 20.9 9 Sur 20 Sudoeste 0 925.3 -0.4 74
2019-08-09 03:00:00 21.3 5 Sur 17 Sudoeste 0 925.4 -0.4 70
2019-08-09 02:00:00 21.9 7 Sur 18 Sudoeste 0 925.7 0.3 69
2019-08-09 01:00:00 22.7 6 Sur 18 Sur 0 925.7 0.7 65
2019-08-09 00:00:00 23.7 8 Sudoeste 19 Sudoeste 0 925.8 1.3 63
2019-08-08 23:00:00 24.5 8 Sudoeste 30 Sudoeste 0 925.4 1.2 59
2019-08-08 22:00:00 25.6 13 Sudoeste 37 Sudoeste 0 925 0.7 56
2019-08-08 21:00:00 27.6 12 Sudoeste 36 Sudoeste 0 924.5 0.2 50
2019-08-08 20:00:00 29 14 Sur 35 Sur 0 924.2 -0.1 49
2019-08-08 19:00:00 29.6 15 Sur 44 Sur 0 924.3 -0.5 47
2019-08-08 18:00:00 29.6 19 Sudoeste 43 Sudoeste 0 924.3 -0.9 47
2019-08-08 17:00:00 30.6 14 Sur 38 Sur 0 924.3 -1.3 47
2019-08-08 16:00:00 31.1 14 Sur 38 Sur 0 924.8 -1.3 46
2019-08-08 15:00:00 30.2 12 Sur 35 Sur 0 925.2 -1 48
2019-08-08 14:00:00 29.5 14 Sur 32 Oeste 0 925.6 -0.9 52
2019-08-08 13:00:00 27.5 10 Sur 27 Sudoeste 0 926.1 -0.6 58
2019-08-08 12:00:00 27.4 10 Sudoeste 24 Sur 0 926.2 -0.5 58
2019-08-08 11:00:00 25.3 12 Sur 26 Sur 0 926.5 0.1 62
2019-08-08 10:00:00 23.6 12 Sur 27 Sur 0 926.7 0.6 66
2019-08-08 09:00:00 21.7 10 Sur 22 Sudoeste 0 926.7 0.7 72
2019-08-08 08:00:00 20 5 Sur 11 Sur 0 926.4 0.1 75
2019-08-08 07:00:00 19.7 8 Sur 23 Oeste 0 926.1 -0.5 76
2019-08-08 06:00:00 20.6 8 Sur 17 Sur 0 926 -1 70
2019-08-08 05:00:00 20.8 6 Sur 12 Sur 0 926.3 -0.6 70
2019-08-08 04:00:00 20.8 5 Sudoeste 28 Sur 0 926.6 -0.1 71
2019-08-08 03:00:00 21.2 9 Sudoeste 27 Oeste 0 927 0.4 68
2019-08-08 02:00:00 21 6 Sur 16 Sudoeste 0 926.9 0.3 69
2019-08-08 01:00:00 21 7 Sur 21 Sur 0 926.7 0.8 69
2019-08-08 00:00:00 21.4 9 Sur 23 Sur 0 926.6 1.1 66
2019-08-07 23:00:00 22.1 7 Sur 21 Sur 0 926.6 1.3 62
2019-08-07 22:00:00 22.8 10 Sur 23 Sur 0 925.9 0.2 59
2019-08-07 21:00:00 24.6 10 Sur 22 Sudoeste 0 925.5 -0.4 55
2019-08-07 20:00:00 25.7 10 Sudoeste 25 Sur 0 925.3 -0.7 52
2019-08-07 19:00:00 25.3 10 Sudoeste 27 Sudoeste 0 925.7 -0.1 53
2019-08-07 18:00:00 24.7 10 Oeste 22 Sudoeste 0 925.9 0.1 54
2019-08-07 17:00:00 25.1 9 Sudoeste 23 Sudoeste 0 926 -0.1 52
2019-08-07 16:00:00 25.7 8 Sudoeste 22 Oeste 0 925.8 -0.5 51
2019-08-07 15:00:00 26 7 Sudoeste 24 Sudoeste 0 925.8 -0.5 50
2019-08-07 14:00:00 26.2 11 Oeste 22 Sudoeste 0 926.1 0.1 50
2019-08-07 13:00:00 25.4 5 Sudoeste 15 Sur 0 926.3 0.3 56
2019-08-07 12:00:00 23.8 5 Oeste 12 Noroeste 0 926.3 0.8 65
2019-08-07 11:00:00 23 3 Oeste 11 Sudoeste 0 926 0.6 70
2019-08-07 10:00:00 21.6 4 Sur 9 Sur 0 926 1.5 77
2019-08-07 09:00:00 19.4 6 Oeste 14 Sudoeste 0 925.5 1.2 84
2019-08-07 08:00:00 18.9 4 Sudoeste 13 Oeste 0 925.4 1.2 83
2019-08-07 07:00:00 18.9 5 Oeste 15 Oeste 0 924.5 0.4 79
2019-08-07 06:00:00 20 8 Oeste 16 Oeste 0 924.3 0 74
2019-08-07 05:00:00 20.9 8 Oeste 15 Oeste 0 924.2 -0.8 71
2019-08-07 04:00:00 21.6 7 Sudoeste 13 Sudoeste 0 924.1 -1 69
2019-08-07 03:00:00 22.6 3 Sur 12 Sudoeste 0 924.3 -0.8 67
2019-08-07 02:00:00 22.9 8 Oeste 14 Sudoeste 0 925 0.1 66
2019-08-07 01:00:00 23.4 4 Oeste 19 Oeste 0 925.1 0.8 63
2019-08-07 00:00:00 24.1 11 Oeste 19 Oeste 0 925.1 1.5 61
2019-08-06 23:00:00 24.8 7 Oeste 21 Oeste 0 924.9 1.7 57
2019-08-06 22:00:00 26 12 Oeste 33 Oeste 0 924.3 1.5 51
2019-08-06 21:00:00 27.9 10 Oeste 29 Oeste 0 923.6 0.5 42
2019-08-06 20:00:00 29.4 13 Oeste 26 Oeste 0 923.2 -0.2 37
2019-08-06 19:00:00 30.8 10 Oeste 22 Sudoeste 0 922.8 -1 37
2019-08-06 18:00:00 31.7 10 Oeste 23 Oeste 0 923.1 -1.3 37
2019-08-06 17:00:00 32 9 Oeste 30 Oeste 0 923.4 -1.5 36
2019-08-06 16:00:00 32.7 11 Oeste 29 Sudoeste 0 923.8 -2.3 36
2019-08-06 15:00:00 31.7 8 Sudoeste 24 Oeste 0 924.4 -1.8 37
2019-08-06 14:00:00 31.1 3 Sudeste 15 Oeste 0 924.9 -1.4 43
2019-08-06 13:00:00 28.3 5 Oeste 13 Sudoeste 0 926.1 -0.5 52
2019-08-06 12:00:00 26.5 5 Oeste 13 Sudoeste 0 926.2 -0.3 58
2019-08-06 11:00:00 25.1 3 Sudoeste 7 Sudoeste 0 926.3 0 63
2019-08-06 10:00:00 22.3 3 Sudoeste 8 Sudoeste 0 926.6 0.1 71
2019-08-06 09:00:00 19.5 0 Calma 8 Sur 0 926.5 0 77
2019-08-06 08:00:00 17.9 3 Sur 12 Sudoeste 0 926.3 -0.3 78
2019-08-06 07:00:00 18.2 6 Sudoeste 11 Oeste 0 926.5 -0.1 77
2019-08-06 06:00:00 19 9 Oeste 15 Noroeste 0 926.5 -0.1 73
2019-08-06 05:00:00 19.6 5 Sudoeste 13 Sudoeste 0 926.6 -0.2 68
2019-08-06 04:00:00 20.8 8 Oeste 18 Oeste 0 926.6 0 62
2019-08-06 03:00:00 21.6 3 Sudoeste 15 Sudoeste 0 926.6 0.3 57
2019-08-06 02:00:00 22.7 6 Sudoeste 12 Sudoeste 0 926.8 0.9 53
2019-08-06 01:00:00 23.8 6 Oeste 9 Oeste 0 926.6 1.2 49
2019-08-06 00:00:00 24.7 5 Oeste 9 Oeste 0 926.3 1.4 44
2019-08-05 23:00:00 26.1 4 Sudoeste 10 Noroeste 0 925.9 1.3 41
2019-08-05 22:00:00 28.3 6 Oeste 20 Oeste 0 925.4 0.7 37
2019-08-05 21:00:00 30.2 8 Oeste 23 Oeste 0 924.9 0 32
2019-08-05 20:00:00 31.5 11 Oeste 23 Noroeste 0 924.6 -0.6 31
2019-08-05 19:00:00 32.8 11 Oeste 26 Noroeste 0 924.7 -1 29
2019-08-05 18:00:00 32.9 11 Sudoeste 29 Sudoeste 0 924.9 -1.1 29
2019-08-05 17:00:00 32.9 12 Sudoeste 27 Sudoeste 0 925.2 -1.2 28
2019-08-05 16:00:00 32.4 9 Oeste 24 Sudoeste 0 925.7 -1.5 29
2019-08-05 15:00:00 31.4 8 Sudoeste 25 Sudoeste 0 926 -1.6 34
2019-08-05 14:00:00 30.1 4 Sur 14 Sudoeste 0 926.4 -1.5 42
2019-08-05 13:00:00 27.9 3 Sudoeste 12 Sur 0 927.2 -1 49
2019-08-05 12:00:00 25.9 5 Sur 10 Sudeste 0 927.6 -0.9 57
2019-08-05 11:00:00 23.7 2 Sur 9 Sur 0 927.9 -0.4 68
2019-08-05 10:00:00 20.7 3 Sudoeste 10 Oeste 0 928.2 0.5 78
2019-08-05 09:00:00 18.2 6 Sudoeste 12 Sudoeste 0 928.5 0.8 89
2019-08-05 08:00:00 17.2 4 Sudoeste 12 Sudoeste 0 928.3 0.5 91
2019-08-05 07:00:00 17.8 6 Oeste 11 Sudoeste 0 927.7 -0.3 87
2019-08-05 06:00:00 18.3 3 Oeste 11 Oeste 0 927.7 -0.3 84
2019-08-05 05:00:00 19.2 6 Oeste 11 Oeste 0 927.8 -0.2 79
2019-08-05 04:00:00 20.1 5 Oeste 12 Oeste 0 928 0.2 73
2019-08-05 03:00:00 21.2 6 Oeste 17 Sudoeste 0 928 0.3 66
2019-08-05 02:00:00 22.4 7 Oeste 14 Oeste 0 928 1 61
2019-08-05 01:00:00 23.7 7 Oeste 13 Oeste 0 927.8 1.3 54
2019-08-05 00:00:00 25 8 Oeste 16 Sudoeste 0 927.7 1.9 46
2019-08-04 23:00:00 26.4 5 Sudoeste 9 Noroeste 0 927 1.6 43
2019-08-04 22:00:00 28.7 5 Oeste 13 Oeste 0 926.5 1.3 39
2019-08-04 21:00:00 30 5 Oeste 22 Noroeste 0 925.8 0.6 36
2019-08-04 20:00:00 31.6 9 Oeste 25 Oeste 0 925.4 -0.1 36
2019-08-04 19:00:00 33 10 Sudoeste 26 Sudoeste 0 925.2 -0.7 36
2019-08-04 18:00:00 33 14 Oeste 39 Sudoeste 0 925.2 -1.1 36
2019-08-04 17:00:00 33.2 9 Sudoeste 29 Sudoeste 0 925.5 -1.2 36
2019-08-04 16:00:00 32.1 12 Oeste 26 Oeste 0 925.9 -1.3 36
2019-08-04 15:00:00 31.6 7 Oeste 26 Oeste 0 926.3 -1.2 40
2019-08-04 14:00:00 30.1 8 Sudoeste 20 Sudoeste 0 926.7 -1 47
2019-08-04 13:00:00 28.3 4 Sudoeste 14 Oeste 0 927.2 -0.5 53
2019-08-04 12:00:00 25.6 4 Sudoeste 15 Oeste 0 927.5 0 61
2019-08-04 11:00:00 23.2 7 Sudoeste 17 Oeste 0 927.7 0.4 69
2019-08-04 10:00:00 21 8 Oeste 16 Oeste 0 927.7 0.6 75
2019-08-04 09:00:00 19.7 7 Oeste 14 Oeste 0 927.5 0.5 80
2019-08-04 08:00:00 18.2 4 Sudoeste 8 Sudoeste 0 927.3 0.3 81
2019-08-04 07:00:00 18.5 5 Sudoeste 8 Sudoeste 0 927.1 -0.2 78
2019-08-04 06:00:00 19.2 3 Sudoeste 16 Sudoeste 0 927 -0.3 75
2019-08-04 05:00:00 19.7 7 Sudoeste 14 Sudoeste 0 927 0 72
2019-08-04 04:00:00 20.7 5 Oeste 14 Oeste 0 927.3 0.7 65
2019-08-04 03:00:00 21.7 8 Oeste 15 Oeste 0 927.3 0.9 61
2019-08-04 02:00:00 22.9 6 Oeste 17 Oeste 0 927 1.1 55
2019-08-04 01:00:00 24.4 7 Oeste 19 Sudoeste 0 926.6 1.6 49
2019-08-04 00:00:00 25.6 7 Oeste 13 Oeste 0 926.4 1.9 44
2019-08-03 23:00:00 27 7 Oeste 22 Oeste 0 925.9 1.4 40
2019-08-03 22:00:00 29.2 6 Oeste 17 Oeste 0 925 0.4 36
2019-08-03 21:00:00 31 8 Oeste 19 Oeste 0 924.5 -0.4 34
2019-08-03 20:00:00 32.3 6 Oeste 25 Oeste 0 924.5 -0.7 33
2019-08-03 19:00:00 33.3 7 Sudoeste 25 Sudoeste 0 924.6 -0.9 32
2019-08-03 18:00:00 33.8 12 Sudoeste 28 Sudoeste 0 924.9 -1 32
2019-08-03 17:00:00 34 11 Sudoeste 26 Sudoeste 0 925.2 -1 32
2019-08-03 16:00:00 33.2 6 Oeste 25 Sudoeste 0 925.5 -1.1 31
2019-08-03 15:00:00 32.5 13 Oeste 27 Sudoeste 0 925.9 -0.9 33
2019-08-03 14:00:00 31.7 9 Oeste 26 Oeste 0 926.2 -0.7 37
2019-08-03 13:00:00 29.9 9 Sudoeste 19 Sudoeste 0 926.6 -0.5 44
2019-08-03 12:00:00 26.4 4 Oeste 13 Oeste 0 926.8 -0.1 52
2019-08-03 11:00:00 23.9 3 Oeste 10 Sudoeste 0 926.9 0.1 61
2019-08-03 10:00:00 21.3 5 Oeste 13 Sudoeste 0 927.1 0.6 68
2019-08-03 09:00:00 19.4 8 Oeste 14 Oeste 0 926.9 0.6 77
2019-08-03 08:00:00 16.8 0 Calma 6 Este 0 926.8 0.3 74
2019-08-03 07:00:00 17.9 0 Calma 8 Oeste 0 926.5 0 71
2019-08-03 06:00:00 18.4 3 Sudoeste 7 Oeste 0 926.3 -0.3 64
2019-08-03 05:00:00 19.2 0 Calma 8 Sudoeste 0 926.5 -0.3 60
2019-08-03 04:00:00 19.9 2 Este 11 Oeste 0 926.5 -0.4 57
2019-08-03 03:00:00 20.5 4 Sudoeste 9 Oeste 0 926.6 -0.3 53
2019-08-03 02:00:00 21.5 0 Calma 6 Nordeste 0 926.8 0.1 53
2019-08-03 01:00:00 23.1 0 Calma 5 Oeste 0 926.9 0.8 51
2019-08-03 00:00:00 25.2 2 Sur 8 Noroeste 0 926.9 1.1 45
2019-08-02 23:00:00 28.3 3 Noroeste 9 Noroeste 0 926.7 0.9 35
2019-08-02 22:00:00 29.1 2 Noroeste 10 Norte 0 926.1 0.1 34
2019-08-02 21:00:00 30.9 4 Norte 14 Noroeste 0 925.8 -0.3 32
2019-08-02 20:00:00 32.2 4 Noroeste 18 Noroeste 0 925.8 -0.9 31
2019-08-02 19:00:00 32.6 5 Noroeste 18 Oeste 0 926 -1.2 30
2019-08-02 18:00:00 32.9 3 Noroeste 16 Oeste 0 926.1 -1.4 30
2019-08-02 17:00:00 32.6 5 Norte 16 Sudoeste 0 926.7 -1.2 32
2019-08-02 16:00:00 32.5 7 Oeste 18 Oeste 0 927.2 -1 33
2019-08-02 15:00:00 31.2 4 Sur 14 Sur 0 927.5 -1 39
2019-08-02 14:00:00 30 5 Este 18 Este 0 927.9 -0.8 44
2019-08-02 13:00:00 26.5 3 Norte 18 Nordeste 0 928.2 -0.4 53
2019-08-02 12:00:00 24.5 4 Nordeste 14 Nordeste 0 928.5 0.1 61
2019-08-02 11:00:00 22.7 4 Este 14 Este 0 928.7 0.8 71
2019-08-02 10:00:00 20 5 Este 10 Este 0 928.6 1 78
2019-08-02 09:00:00 16.8 4 Este 9 Este 0 928.4 0.9 87
2019-08-02 08:00:00 15.3 4 Este 9 Este 0 927.9 0.3 85
2019-08-02 07:00:00 15.8 2 Este 6 Sudoeste 0 927.6 0 75
2019-08-02 06:00:00 16.8 3 Sudoeste 7 Noroeste 0 927.5 0 69
2019-08-02 05:00:00 17.8 4 Oeste 13 Oeste 0 927.6 -0.1 65
2019-08-02 04:00:00 19 6 Oeste 15 Oeste 0 927.6 0.1 61
2019-08-02 03:00:00 20.5 10 Oeste 15 Oeste 0 927.5 0.4 55
2019-08-02 02:00:00 21.4 5 Oeste 12 Oeste 0 927.7 1.4 50
2019-08-02 01:00:00 22.5 6 Oeste 14 Sudoeste 0 927.5 2 46
2019-08-02 00:00:00 23.2 4 Oeste 13 Oeste 0 927.1 2 41
2019-08-01 23:00:00 25.5 2 Sudoeste 11 Noroeste 0 926.3 1.7 36
2019-08-01 22:00:00 27.2 3 Noroeste 12 Oeste 0 925.5 1 34
2019-08-01 21:00:00 28.9 5 Oeste 19 Oeste 0 925.1 0.6 32
2019-08-01 20:00:00 30.3 10 Oeste 29 Oeste 0 924.6 0 32
2019-08-01 19:00:00 31 8 Oeste 26 Oeste 0 924.5 -0.6 32
2019-08-01 18:00:00 31.7 7 Sudoeste 25 Oeste 0 924.5 -0.9 31
2019-08-01 17:00:00 31.4 7 Oeste 27 Oeste 0 924.6 -1.3 32
2019-08-01 16:00:00 30.2 9 Oeste 21 Oeste 0 925.1 -1.1 37
2019-08-01 15:00:00 29.7 4 Sudoeste 17 Sudoeste 0 925.4 -1.1 40
2019-08-01 14:00:00 27.7 3 Norte 17 Sudoeste 0 925.9 -0.5 45
2019-08-01 13:00:00 25.8 6 Oeste 15 Oeste 0 926.2 0 51
2019-08-01 12:00:00 23.8 4 Oeste 14 Sur 0 926.5 0.6 58
2019-08-01 11:00:00 21.4 5 Sudoeste 13 Sudoeste 0 926.4 0.9 67
2019-08-01 10:00:00 19.5 5 Sur 10 Sudoeste 0 926.2 1.2 74
2019-08-01 09:00:00 17 3 Noroeste 11 Oeste 0 925.9 1.2 79
2019-08-01 08:00:00 16.1 2 Oeste 8 Oeste 0 925.5 1 81
2019-08-01 07:00:00 16.7 2 Noroeste 10 Noroeste 0 925 0.4 77
2019-08-01 06:00:00 17.5 4 Noroeste 12 Norte 0 924.7 -0.1 71
2019-08-01 05:00:00 18.7 2 Norte 13 Oeste 0 924.5 -0.7 63
2019-08-01 04:00:00 19.5 2 Nordeste 13 Nordeste 0 924.6 -0.8 60
2019-08-01 03:00:00 20.4 3 Oeste 8 Noroeste 0 924.8 -0.6 54
2019-08-01 02:00:00 21.6 3 Nordeste 9 Nordeste 0 925.2 -0.2 50
2019-08-01 01:00:00 22.1 2 Este 15 Nordeste 0 925.4 0.4 46
2019-08-01 00:00:00 23.6 3 Norte 13 Noroeste 0 925.4 0.9 43
2019-07-31 23:00:00 24.6 5 Noroeste 18 Noroeste 0 925.4 1.1 41
2019-07-31 22:00:00 25.7 5 Noroeste 18 Noroeste 0 925 0.6 40
2019-07-31 21:00:00 26.8 6 Noroeste 24 Norte 0 924.5 -0.2 39
2019-07-31 20:00:00 27.8 6 Noroeste 17 Noroeste 0 924.3 -1.1 38
2019-07-31 19:00:00 28.6 5 Norte 21 Oeste 0 924.4 -1.6 37
2019-07-31 18:00:00 29.6 3 Noroeste 15 Noroeste 0 924.7 -1.8 37
2019-07-31 17:00:00 29.6 4 Nordeste 15 Nordeste 0 925.4 -1.7 38
2019-07-31 16:00:00 29 5 Nordeste 16 Este 0 926 -1.8 41
2019-07-31 15:00:00 27.2 4 Nordeste 19 Este 0 926.5 -1.8 44
2019-07-31 14:00:00 25.8 3 Nordeste 22 Nordeste 0 927.1 -1.5 49
2019-07-31 13:00:00 23.3 4 Norte 21 Nordeste 0 927.8 -0.7 53
2019-07-31 12:00:00 21 9 Nordeste 26 Nordeste 0 928.3 -0.4 59
2019-07-31 11:00:00 18.8 9 Nordeste 23 Nordeste 0 928.6 -0.2 64
2019-07-31 10:00:00 16.3 9 Nordeste 22 Nordeste 0 928.5 -0.1 71
2019-07-31 09:00:00 14.2 7 Nordeste 21 Nordeste 0 928.7 -0.1 78
2019-07-31 08:00:00 12.4 7 Este 12 Nordeste 0 928.8 0 82
2019-07-31 07:00:00 12.9 5 Este 15 Nordeste 0 928.6 0.1 78
2019-07-31 06:00:00 13.8 6 Nordeste 15 Nordeste 0 928.8 -0.3 73
2019-07-31 05:00:00 14.4 6 Nordeste 15 Este 0 928.8 -0.2 69
2019-07-31 04:00:00 15.2 7 Nordeste 16 Nordeste 0 928.5 -0.3 68
2019-07-31 03:00:00 16.5 8 Nordeste 15 Nordeste 0 929.1 0.5 60
2019-07-31 02:00:00 17.7 7 Nordeste 17 Este 0 929 0.2 52
2019-07-31 01:00:00 18.4 7 Nordeste 15 Nordeste 0 928.8 0.6 47
2019-07-31 00:00:00 19.2 5 Este 15 Nordeste 0 928.6 0.7 46
2019-07-30 23:00:00 21 2 Nordeste 9 Nordeste 0 928.8 1 43
2019-07-30 22:00:00 23.1 5 Nordeste 15 Nordeste 0 928.2 0.2 36
2019-07-30 21:00:00 24.5 5 Nordeste 24 Nordeste 0 927.9 -0.5 34
2019-07-30 20:00:00 25.3 7 Nordeste 19 Nordeste 0 927.8 -1 32
2019-07-30 19:00:00 26.7 8 Nordeste 21 Nordeste 0 928 -1.5 32
2019-07-30 18:00:00 26.3 9 Nordeste 21 Nordeste 0 928.4 -1.5 33
2019-07-30 17:00:00 25.9 8 Nordeste 22 Nordeste 0 928.8 -1.7 33
2019-07-30 16:00:00 25.4 6 Nordeste 25 Nordeste 0 929.5 -1.3 36
2019-07-30 15:00:00 23.7 4 Nordeste 19 Nordeste 0 929.9 -1.2 41
2019-07-30 14:00:00 21.9 4 Noroeste 20 Norte 0 930.5 -0.7 45
2019-07-30 13:00:00 20.1 8 Norte 21 Nordeste 0 930.8 -0.6 49
2019-07-30 12:00:00 18.5 4 Norte 19 Nordeste 0 931.1 -0.3 55
2019-07-30 11:00:00 17 6 Nordeste 19 Norte 0 931.2 0.7 61
2019-07-30 10:00:00 14.7 8 Nordeste 23 Nordeste 0 931.4 1.2 67
2019-07-30 09:00:00 12.9 3 Sur 6 Sudoeste 0 931.4 1.3 79
2019-07-30 08:00:00 11.4 0 Calma 6 Este 0 930.5 0.4 81
2019-07-30 07:00:00 12 0 Calma 8 Sudoeste 0 930.2 0.4 79
2019-07-30 06:00:00 12.5 4 Sudoeste 15 Oeste 0 930.1 0.5 76
2019-07-30 05:00:00 13.4 8 Oeste 15 Oeste 0 930.1 0.6 72
2019-07-30 04:00:00 13.9 6 Oeste 13 Oeste 0 929.8 0.9 70
2019-07-30 03:00:00 14.6 4 Sudoeste 17 Sudoeste 0 929.6 1.3 66
2019-07-30 02:00:00 15.7 7 Oeste 20 Oeste 0 929.5 1.7 60
2019-07-30 01:00:00 16.8 9 Oeste 23 Oeste 0 928.9 1.9 56
2019-07-30 00:00:00 18.2 10 Oeste 26 Oeste 0 928.3 2 53
2019-07-29 23:00:00 19.8 13 Oeste 28 Oeste 0 927.8 2 49
2019-07-29 22:00:00 21.2 11 Oeste 25 Oeste 0 927 1.4 44
2019-07-29 21:00:00 22.8 11 Oeste 30 Oeste 0 926.3 0.9 39
2019-07-29 20:00:00 24.2 12 Oeste 31 Oeste 0 925.8 0.3 38
2019-07-29 19:00:00 25.6 12 Oeste 28 Sudoeste 0 925.6 0 37
2019-07-29 18:00:00 26.2 11 Oeste 31 Sudoeste 0 925.4 -0.4 39
2019-07-29 17:00:00 26.5 15 Oeste 33 Oeste 0 925.5 -0.2 39
2019-07-29 16:00:00 26 13 Oeste 33 Oeste 0 925.6 -0.3 43
2019-07-29 15:00:00 24.7 13 Oeste 34 Sudoeste 0 925.8 -0.4 47
2019-07-29 14:00:00 24.3 12 Oeste 33 Sudoeste 0 925.7 -0.4 54
2019-07-29 13:00:00 22.1 11 Oeste 26 Oeste 0 925.9 -0.1 61
2019-07-29 12:00:00 20.2 9 Oeste 26 Oeste 0 926.2 0.7 69
2019-07-29 11:00:00 20 10 Sudoeste 24 Oeste 0 926.1 1 69
2019-07-29 10:00:00 18.5 8 Oeste 21 Sudoeste 0 926 1.5 60
2019-07-29 09:00:00 16.3 6 Sudoeste 14 Sudoeste 0 925.5 1.3 66
2019-07-29 08:00:00 14.7 6 Oeste 14 Sudoeste 0 925.1 0.8 73
2019-07-29 07:00:00 14.7 4 Oeste 9 Oeste 0 924.5 0.4 73
2019-07-29 06:00:00 15.7 5 Sudoeste 16 Sudoeste 0 924.2 0.1 73
2019-07-29 05:00:00 16.5 6 Sudoeste 17 Sudoeste 0 924.3 0.2 73
2019-07-29 04:00:00 17.5 11 Sudoeste 23 Sudoeste 0 924.1 0.6 72
2019-07-29 03:00:00 18.7 11 Sudoeste 21 Sudoeste 0 924.1 0.7 66
2019-07-29 02:00:00 20.2 6 Oeste 15 Oeste 0 924.1 0.9 49
2019-07-29 01:00:00 20.8 8 Oeste 14 Oeste 0 923.5 0.9 44
2019-07-29 00:00:00 21 0 Calma 5 Sudoeste 0 923.4 1 40
2019-07-28 23:00:00 22.7 3 Oeste 12 Oeste 0 923.2 1.1 36
2019-07-28 22:00:00 25.6 8 Oeste 17 Oeste 0 922.6 0.5 32
2019-07-28 21:00:00 26.8 9 Oeste 20 Oeste 0 922.4 0.2 33
2019-07-28 20:00:00 28.3 8 Sudoeste 24 Sudoeste 0 922.1 -0.7 32
2019-07-28 19:00:00 29.1 10 Oeste 21 Noroeste 0 922.1 -1.4 32
2019-07-28 18:00:00 29.1 9 Sudoeste 22 Sudoeste 0 922.2 -1.7 34
2019-07-28 17:00:00 28 3 Noroeste 21 Oeste 0 922.8 -1.6 36
2019-07-28 16:00:00 27.5 5 Oeste 16 Este 0 923.5 -1.5 39
2019-07-28 15:00:00 25.4 4 Oeste 15 Este 0 923.9 -1.3 44
2019-07-28 14:00:00 25.3 5 Sudeste 14 Este 0 924.4 -0.9 47
2019-07-28 13:00:00 23.6 6 Este 16 Este 0 925 -0.4 52
2019-07-28 12:00:00 21.4 4 Nordeste 18 Este 0 925.2 -0.2 56
2019-07-28 11:00:00 20 8 Este 22 Sudeste 0 925.3 0 64
2019-07-28 10:00:00 16.9 7 Nordeste 16 Este 0 925.4 0.3 76
2019-07-28 09:00:00 14.1 5 Nordeste 14 Nordeste 0 925.4 0.2 86
2019-07-28 08:00:00 12 3 Este 13 Este 0 925.3 -0.1 90
2019-07-28 07:00:00 12.2 4 Este 13 Este 0 925.1 -0.3 88
2019-07-28 06:00:00 12.9 6 Este 15 Nordeste 0 925.2 -0.1 83
2019-07-28 05:00:00 13.9 8 Nordeste 17 Nordeste 0 925.4 0.1 80
2019-07-28 04:00:00 14.5 5 Nordeste 15 Nordeste 0 925.4 0.4 78
2019-07-28 03:00:00 15.2 7 Nordeste 17 Nordeste 0 925.3 0.9 77
2019-07-28 02:00:00 16.3 9 Nordeste 21 Nordeste 0 925.3 1.6 75
2019-07-28 01:00:00 17.9 8 Nordeste 22 Nordeste 0 925 2 71
2019-07-28 00:00:00 19.3 9 Nordeste 21 Nordeste 0 924.4 1.9 67
2019-07-27 23:00:00 21.1 4 Oeste 13 Oeste 0 923.7 1.8 60
2019-07-26 12:00:00 20.5 9 Oeste 24 Oeste 0 926.6 -0.1 55
2019-07-26 11:00:00 18.5 10 Oeste 25 Oeste 0 926.9 0.7 65
2019-07-26 10:00:00 16.6 11 Oeste 26 Sudoeste 0 926.8 0.8 73
2019-07-26 09:00:00 15.4 11 Oeste 24 Oeste 0 926.7 0.9 79
2019-07-26 08:00:00 15.7 10 Oeste 23 Oeste 0 926.2 0.2 80
2019-07-26 07:00:00 17.1 10 Oeste 21 Oeste 0 926 -0.2 79
2019-07-26 06:00:00 18.1 9 Oeste 18 Oeste 0 925.8 -0.5 77
2019-07-26 05:00:00 18.6 8 Oeste 18 Oeste 0 926 -0.5 80
2019-07-26 04:00:00 19.3 8 Oeste 19 Oeste 0 926.2 -0.2 80
2019-07-26 03:00:00 20 8 Oeste 21 Oeste 0 926.3 0.4 79
2019-07-26 02:00:00 20.6 8 Oeste 23 Sudoeste 0 926.5 0.8 79
2019-07-26 01:00:00 21.3 12 Oeste 25 Oeste 0 926.4 1.1 77
2019-07-26 00:00:00 22.3 13 Oeste 28 Oeste 0 925.9 1 72